Time;durP1;ratioP1;P1;durP2;ratioP2;P2;SDS_P1;SDS_P2;PMS_P1;PMS_P2;Temp;Humidity;BMP_temperature;BMP_pressure;BME280_temperature;BME280_humidity;BME280_pressure;Samples;Min_cycle;Max_cycle;Signal;HPM_P1;HPM_P2
2021/08/27 00:00:27;;;;;;;;;6.00;5.00;;;;;;;;5035072;28;51414;-52
2021/08/27 00:02:52;;;;;;;;;6.00;6.00;;;;;;;;5034274;28;52001;-50
2021/08/27 00:05:17;;;;;;;;;7.67;6.67;;;;;;;;5054818;27;51326;-51
2021/08/27 00:07:42;;;;;;;;;7.00;7.00;;;;;;;;5056879;27;51200;-51
2021/08/27 00:10:08;;;;;;;;;8.67;7.67;;;;;;;;5055889;27;51369;-52
2021/08/27 00:12:35;;;;;;;;;6.33;6.00;;;;;;;;5058385;27;51233;-50
2021/08/27 00:15:00;;;;;;;;;7.00;7.00;;;;;;;;5052245;27;51215;-53
2021/08/27 00:17:29;;;;;;;;;7.00;6.00;;;;;;;;5034040;27;51111;-52
2021/08/27 00:19:55;;;;;;;;;9.67;8.33;;;;;;;;5054525;27;51384;-52
2021/08/27 00:22:21;;;;;;;;;6.00;6.00;;;;;;;;5056673;27;52000;-48
2021/08/27 00:24:46;;;;;;;;;9.00;7.67;;;;;;;;5035845;27;50932;-53
2021/08/27 00:27:11;;;;;;;;;8.00;7.00;;;;;;;;5061130;27;51582;-53
2021/08/27 00:29:36;;;;;;;;;4.00;4.00;;;;;;;;5056449;27;51179;-52
2021/08/27 00:32:02;;;;;;;;;8.33;7.00;;;;;;;;5057784;27;51991;-49
2021/08/27 00:34:27;;;;;;;;;8.00;7.00;;;;;;;;5056363;27;51171;-53
2021/08/27 00:36:52;;;;;;;;;8.00;8.00;;;;;;;;5058623;27;52076;-52
2021/08/27 00:39:17;;;;;;;;;7.00;7.00;;;;;;;;5058839;27;51441;-52
2021/08/27 00:41:42;;;;;;;;;9.33;8.00;;;;;;;;5054853;27;51427;-49
2021/08/27 00:44:08;;;;;;;;;8.00;7.00;;;;;;;;5051190;27;51340;-51
2021/08/27 00:46:33;;;;;;;;;4.00;4.00;;;;;;;;5055095;27;51113;-50
2021/08/27 00:48:58;;;;;;;;;6.33;5.67;;;;;;;;5054572;27;50971;-52
2021/08/27 00:51:23;;;;;;;;;8.00;7.00;;;;;;;;5054111;27;52152;-54
2021/08/27 00:53:48;;;;;;;;;5.00;4.00;;;;;;;;5053569;27;51291;-51
2021/08/27 00:56:14;;;;;;;;;10.33;8.00;;;;;;;;5054405;27;51231;-50
2021/08/27 00:58:39;;;;;;;;;9.67;9.33;;;;;;;;5054265;27;52148;-50
2021/08/27 01:01:04;;;;;;;;;8.00;7.67;;;;;;;;5056438;27;51382;-50
2021/08/27 01:03:29;;;;;;;;;9.00;7.00;;;;;;;;5053545;27;51030;-49
2021/08/27 01:06:08;;;;;;;;;9.00;8.00;;;;;;;;5054317;27;51809;-50
2021/08/27 01:08:39;;;;;;;;;9.33;7.00;;;;;;;;5059871;27;52676;-51
2021/08/27 01:11:12;;;;;;;;;9.67;8.67;;;;;;;;5055126;27;51555;-52
2021/08/27 01:13:57;;;;;;;;;9.67;7.00;;;;;;;;5055202;27;51241;-50
2021/08/27 01:16:24;;;;;;;;;8.00;7.33;;;;;;;;5053390;27;51391;-52
2021/08/27 01:18:49;;;;;;;;;8.00;5.33;;;;;;;;5052175;27;51247;-51
2021/08/27 01:21:33;;;;;;;;;7.00;7.00;;;;;;;;5050854;27;51969;-51
2021/08/27 01:24:03;;;;;;;;;7.00;7.00;;;;;;;;5054958;27;51243;-53
2021/08/27 01:26:31;;;;;;;;;7.00;6.67;;;;;;;;5057334;27;50967;-50
2021/08/27 01:28:57;;;;;;;;;11.00;9.67;;;;;;;;5069787;27;51233;-52
2021/08/27 01:31:25;;;;;;;;;8.00;6.67;;;;;;;;5050042;28;51117;-50
2021/08/27 01:33:59;;;;;;;;;7.67;7.00;;;;;;;;5069533;28;50987;-53
2021/08/27 01:36:24;;;;;;;;;7.33;7.00;;;;;;;;5072879;28;50937;-52
2021/08/27 01:38:50;;;;;;;;;8.67;8.33;;;;;;;;5054250;28;51465;-51
2021/08/27 01:41:17;;;;;;;;;8.00;7.67;;;;;;;;5060762;28;52253;-52
2021/08/27 01:43:43;;;;;;;;;7.33;7.00;;;;;;;;5069732;28;50871;-53
2021/08/27 01:46:09;;;;;;;;;7.33;6.67;;;;;;;;5070899;28;50928;-52
2021/08/27 01:48:37;;;;;;;;;8.33;7.33;;;;;;;;5072572;28;50845;-53
2021/08/27 01:51:04;;;;;;;;;8.00;7.00;;;;;;;;5044990;28;51175;-51
2021/08/27 01:53:29;;;;;;;;;8.00;7.00;;;;;;;;5064660;28;51274;-50
2021/08/27 01:55:58;;;;;;;;;7.00;6.00;;;;;;;;5055865;28;51339;-52
2021/08/27 01:58:28;;;;;;;;;9.67;8.00;;;;;;;;5070662;28;50949;-52
2021/08/27 02:00:55;;;;;;;;;8.00;6.67;;;;;;;;5066325;28;50987;-53
2021/08/27 02:03:20;;;;;;;;;10.00;8.67;;;;;;;;5071024;28;50971;-52
2021/08/27 02:05:46;;;;;;;;;10.33;8.33;;;;;;;;5066916;28;51135;-52
2021/08/27 02:08:12;;;;;;;;;7.33;6.67;;;;;;;;5070911;28;51053;-52
2021/08/27 02:10:37;;;;;;;;;10.00;7.00;;;;;;;;5054037;28;52433;-49
2021/08/27 02:13:03;;;;;;;;;11.67;10.00;;;;;;;;5071492;28;51210;-52
2021/08/27 02:15:28;;;;;;;;;8.00;7.33;;;;;;;;5072556;28;50929;-50
2021/08/27 02:17:53;;;;;;;;;8.33;6.33;;;;;;;;5070725;28;51042;-53
2021/08/27 02:20:19;;;;;;;;;8.00;8.00;;;;;;;;5072074;28;50988;-52
2021/08/27 02:22:46;;;;;;;;;9.33;7.67;;;;;;;;5071536;28;51231;-53
2021/08/27 02:25:14;;;;;;;;;9.00;8.67;;;;;;;;5072183;28;51277;-50
2021/08/27 02:27:40;;;;;;;;;9.00;8.00;;;;;;;;5060381;28;52028;-53
2021/08/27 02:30:06;;;;;;;;;13.33;10.33;;;;;;;;5071681;28;51197;-53
2021/08/27 02:32:31;;;;;;;;;11.33;9.33;;;;;;;;5071989;28;50979;-52
2021/08/27 02:35:00;;;;;;;;;7.00;7.00;;;;;;;;5072330;28;50963;-52
2021/08/27 02:37:26;;;;;;;;;11.33;9.00;;;;;;;;5068019;28;51223;-51
2021/08/27 02:39:51;;;;;;;;;8.33;7.67;;;;;;;;5073076;28;51865;-52
2021/08/27 02:42:17;;;;;;;;;10.00;9.25;;;;;;;;5075162;28;51061;-51
2021/08/27 02:44:42;;;;;;;;;9.67;9.00;;;;;;;;5075474;28;51000;-52
2021/08/27 02:47:07;;;;;;;;;7.33;5.00;;;;;;;;5074250;28;50888;-49
2021/08/27 02:49:32;;;;;;;;;8.33;8.00;;;;;;;;5056910;28;52257;-53
2021/08/27 02:52:15;;;;;;;;;9.00;8.67;;;;;;;;5074422;28;50946;-53
2021/08/27 02:55:03;;;;;;;;;7.33;6.67;;;;;;;;5075075;28;51031;-52
2021/08/27 02:57:31;;;;;;;;;11.33;8.33;;;;;;;;5061075;28;52113;-52
2021/08/27 03:00:00;;;;;;;;;11.33;9.00;;;;;;;;5062013;28;50971;-52
2021/08/27 03:02:26;;;;;;;;;8.33;7.33;;;;;;;;5074990;28;51047;-52
2021/08/27 03:05:06;;;;;;;;;11.33;9.33;;;;;;;;5075212;28;51044;-51
2021/08/27 03:07:35;;;;;;;;;10.00;8.00;;;;;;;;5073707;28;51344;-53
2021/08/27 03:10:03;;;;;;;;;12.00;7.67;;;;;;;;5074645;28;52099;-49
2021/08/27 03:12:36;;;;;;;;;9.67;9.00;;;;;;;;5066348;27;51467;-50
2021/08/27 03:15:02;;;;;;;;;8.00;7.33;;;;;;;;5075223;28;51329;-50
2021/08/27 03:17:31;;;;;;;;;7.33;7.33;;;;;;;;5068727;28;51082;-49
2021/08/27 03:20:17;;;;;;;;;8.67;8.00;;;;;;;;5066759;28;51169;-50
2021/08/27 03:22:45;;;;;;;;;9.33;8.33;;;;;;;;5074775;28;50971;-50
2021/08/27 03:25:12;;;;;;;;;8.33;7.67;;;;;;;;5074748;28;51003;-52
2021/08/27 03:27:40;;;;;;;;;9.33;7.00;;;;;;;;5069282;28;50891;-51
2021/08/27 03:30:09;;;;;;;;;10.33;8.00;;;;;;;;5069736;28;52725;-52
2021/08/27 03:32:34;;;;;;;;;8.33;7.00;;;;;;;;5074768;28;50954;-52
2021/08/27 03:35:00;;;;;;;;;10.67;8.67;;;;;;;;5074661;28;51317;-50
2021/08/27 03:37:25;;;;;;;;;9.67;8.00;;;;;;;;5073518;28;51184;-52
2021/08/27 03:39:51;;;;;;;;;10.00;9.00;;;;;;;;5074371;28;51076;-52
2021/08/27 03:42:17;;;;;;;;;8.33;7.67;;;;;;;;5074216;28;50953;-49
2021/08/27 03:44:44;;;;;;;;;10.00;9.00;;;;;;;;5074316;28;51362;-52
2021/08/27 03:47:12;;;;;;;;;9.33;8.00;;;;;;;;5071805;28;51071;-52
2021/08/27 03:49:37;;;;;;;;;10.33;9.67;;;;;;;;5073909;28;51886;-52
2021/08/27 03:52:03;;;;;;;;;10.67;9.00;;;;;;;;5073429;28;51077;-50
2021/08/27 03:54:28;;;;;;;;;13.00;10.67;;;;;;;;5074251;28;50956;-52
2021/08/27 03:56:54;;;;;;;;;8.00;8.00;;;;;;;;5064440;28;51169;-51
2021/08/27 03:59:20;;;;;;;;;8.67;8.00;;;;;;;;5060416;28;51927;-53
2021/08/27 04:01:45;;;;;;;;;8.00;7.00;;;;;;;;5074547;28;51023;-52
2021/08/27 04:04:19;;;;;;;;;10.67;9.67;;;;;;;;5055821;28;51846;-53
2021/08/27 04:06:51;;;;;;;;;10.00;9.33;;;;;;;;5055061;28;50941;-54
2021/08/27 04:09:16;;;;;;;;;8.00;8.00;;;;;;;;5062825;28;52020;-55
2021/08/27 04:11:41;;;;;;;;;10.67;9.67;;;;;;;;5065454;28;51283;-51
2021/08/27 04:14:06;;;;;;;;;10.33;8.67;;;;;;;;5074088;28;51179;-52
2021/08/27 04:16:31;;;;;;;;;7.67;7.33;;;;;;;;5073234;28;50975;-52
2021/08/27 04:18:57;;;;;;;;;11.33;10.33;;;;;;;;5054872;28;51297;-54
2021/08/27 04:21:22;;;;;;;;;8.33;6.00;;;;;;;;5074043;28;50883;-53
2021/08/27 04:23:47;;;;;;;;;10.33;9.33;;;;;;;;5073936;28;50839;-52
2021/08/27 04:26:12;;;;;;;;;9.00;9.00;;;;;;;;5068652;28;51197;-52
2021/08/27 04:28:37;;;;;;;;;11.00;8.67;;;;;;;;5069716;28;54098;-52
2021/08/27 04:31:03;;;;;;;;;8.67;8.00;;;;;;;;5073983;28;51103;-54
2021/08/27 04:33:28;;;;;;;;;11.00;10.00;;;;;;;;5055814;28;51310;-53
2021/08/27 04:35:53;;;;;;;;;10.67;10.67;;;;;;;;5071569;28;51089;-54
2021/08/27 04:38:18;;;;;;;;;9.67;8.00;;;;;;;;5069935;28;51144;-53
2021/08/27 04:40:44;;;;;;;;;10.00;9.67;;;;;;;;5074078;28;51086;-53
2021/08/27 04:43:09;;;;;;;;;13.33;9.33;;;;;;;;5073395;28;51799;-53
2021/08/27 04:45:34;;;;;;;;;11.33;10.00;;;;;;;;5055530;28;50982;-55
2021/08/27 04:47:59;;;;;;;;;9.67;9.67;;;;;;;;5071698;28;51259;-52
2021/08/27 04:50:25;;;;;;;;;13.00;10.67;;;;;;;;5073908;28;50908;-53
2021/08/27 04:52:50;;;;;;;;;11.00;11.00;;;;;;;;5072760;28;51119;-51
2021/08/27 04:55:15;;;;;;;;;11.00;9.67;;;;;;;;5073606;28;51362;-51
2021/08/27 04:57:40;;;;;;;;;13.33;10.33;;;;;;;;5058532;28;51816;-54
2021/08/27 05:00:08;;;;;;;;;15.67;12.67;;;;;;;;5072804;28;51009;-52
2021/08/27 05:02:34;;;;;;;;;11.00;9.67;;;;;;;;5054900;28;51311;-54
2021/08/27 05:04:59;;;;;;;;;9.33;9.33;;;;;;;;5073452;28;50879;-54
2021/08/27 05:07:24;;;;;;;;;12.00;11.33;;;;;;;;5070168;28;51100;-52
2021/08/27 05:09:50;;;;;;;;;10.00;9.00;;;;;;;;5066370;28;51070;-50
2021/08/27 05:12:15;;;;;;;;;13.67;12.00;;;;;;;;5070507;27;51037;-51
2021/08/27 05:14:40;;;;;;;;;10.00;9.00;;;;;;;;5072057;28;51346;-52
2021/08/27 05:17:05;;;;;;;;;11.33;10.00;;;;;;;;5070433;28;52096;-53
2021/08/27 05:19:30;;;;;;;;;18.25;16.50;;;;;;;;5073078;28;51223;-52
2021/08/27 05:21:58;;;;;;;;;10.67;10.00;;;;;;;;5073008;28;50953;-52
2021/08/27 05:24:23;;;;;;;;;14.00;11.00;;;;;;;;5072859;28;50847;-50
2021/08/27 05:26:48;;;;;;;;;14.33;13.00;;;;;;;;5070453;28;51265;-53
2021/08/27 05:29:13;;;;;;;;;15.00;13.00;;;;;;;;5072311;28;51159;-49
2021/08/27 05:31:38;;;;;;;;;12.67;11.33;;;;;;;;5062794;28;51091;-52
2021/08/27 05:34:06;;;;;;;;;16.00;14.33;;;;;;;;5062548;28;51251;-53
2021/08/27 05:36:32;;;;;;;;;12.50;12.00;;;;;;;;5054674;28;52024;-54
2021/08/27 05:38:57;;;;;;;;;14.67;12.67;;;;;;;;5072420;28;51046;-53
2021/08/27 05:41:22;;;;;;;;;13.00;12.00;;;;;;;;5072079;28;51156;-52
2021/08/27 05:43:47;;;;;;;;;13.67;10.67;;;;;;;;5072833;28;51313;-53
2021/08/27 05:46:12;;;;;;;;;12.67;10.67;;;;;;;;5071994;28;51926;-53
2021/08/27 05:48:38;;;;;;;;;12.33;12.33;;;;;;;;5067766;28;51183;-50
2021/08/27 05:51:03;;;;;;;;;15.00;13.00;;;;;;;;5048103;28;51032;-50
2021/08/27 05:53:28;;;;;;;;;14.67;13.00;;;;;;;;5072300;28;50875;-50
2021/08/27 05:55:54;;;;;;;;;14.00;12.67;;;;;;;;5071777;28;52572;-50
2021/08/27 05:58:21;;;;;;;;;14.33;11.67;;;;;;;;5072298;28;50977;-51
2021/08/27 06:00:46;;;;;;;;;15.67;14.00;;;;;;;;5071342;28;50997;-53
2021/08/27 06:03:11;;;;;;;;;15.75;11.75;;;;;;;;5054169;28;51188;-55
2021/08/27 06:05:37;;;;;;;;;16.33;15.00;;;;;;;;5053678;28;53744;-54
2021/08/27 06:08:02;;;;;;;;;14.33;12.00;;;;;;;;5072316;28;51263;-52
2021/08/27 06:10:27;;;;;;;;;15.00;14.00;;;;;;;;5054075;28;51055;-54
2021/08/27 06:12:52;;;;;;;;;13.67;11.67;;;;;;;;5075051;28;51339;-53
2021/08/27 06:15:18;;;;;;;;;13.67;13.00;;;;;;;;5075413;28;51207;-54
2021/08/27 06:17:43;;;;;;;;;13.00;13.00;;;;;;;;5075326;28;51040;-53
2021/08/27 06:20:09;;;;;;;;;10.00;9.67;;;;;;;;5056964;28;51034;-52
2021/08/27 06:22:34;;;;;;;;;13.33;13.33;;;;;;;;5075418;27;50862;-52
2021/08/27 06:25:00;;;;;;;;;14.33;13.00;;;;;;;;5071886;28;51059;-54
2021/08/27 06:27:25;;;;;;;;;17.67;16.67;;;;;;;;5074790;28;50972;-53
2021/08/27 06:29:51;;;;;;;;;15.00;13.67;;;;;;;;5075314;28;51132;-54
2021/08/27 06:32:16;;;;;;;;;16.50;15.00;;;;;;;;5075597;28;50868;-53
2021/08/27 06:34:42;;;;;;;;;18.75;16.25;;;;;;;;5075070;28;51254;-53
2021/08/27 06:37:07;;;;;;;;;16.67;16.00;;;;;;;;5075034;28;51132;-53
2021/08/27 06:39:32;;;;;;;;;11.00;8.33;;;;;;;;5075278;28;51187;-51
2021/08/27 06:41:58;;;;;;;;;13.67;11.67;;;;;;;;5056752;28;51121;-54
2021/08/27 06:44:23;;;;;;;;;13.33;13.33;;;;;;;;5056494;28;54121;-52
2021/08/27 06:46:48;;;;;;;;;15.00;14.33;;;;;;;;5056650;28;51040;-53
2021/08/27 06:49:14;;;;;;;;;12.00;11.67;;;;;;;;5074753;28;51304;-53
2021/08/27 06:51:40;;;;;;;;;13.33;12.67;;;;;;;;5074587;28;51109;-52
2021/08/27 06:54:05;;;;;;;;;17.33;13.67;;;;;;;;5055894;28;52898;-50
2021/08/27 06:56:30;;;;;;;;;7.00;6.50;;;;;;;;5073614;28;51136;-52
2021/08/27 06:58:56;;;;;;;;;12.00;12.00;;;;;;;;5074917;28;50932;-52
2021/08/27 07:01:21;;;;;;;;;14.67;14.00;;;;;;;;5075051;28;50878;-54
2021/08/27 07:03:46;;;;;;;;;17.00;14.00;;;;;;;;5074216;28;51064;-52
2021/08/27 07:06:12;;;;;;;;;15.33;13.67;;;;;;;;5074393;28;51149;-54
2021/08/27 07:08:38;;;;;;;;;12.67;10.00;;;;;;;;5074683;28;51006;-54
2021/08/27 07:11:03;;;;;;;;;17.00;14.67;;;;;;;;5074546;28;50901;-53
2021/08/27 07:13:28;;;;;;;;;16.00;15.33;;;;;;;;5052873;28;53480;-51
2021/08/27 07:15:56;;;;;;;;;14.00;13.67;;;;;;;;5073298;28;50816;-54
2021/08/27 07:18:21;;;;;;;;;13.00;12.00;;;;;;;;5074691;28;50965;-54
2021/08/27 07:20:46;;;;;;;;;13.33;13.33;;;;;;;;5074711;28;51084;-53
2021/08/27 07:23:13;;;;;;;;;13.00;12.67;;;;;;;;5073933;28;52290;-50
2021/08/27 07:25:39;;;;;;;;;13.33;12.33;;;;;;;;5073739;28;51122;-53
2021/08/27 07:28:04;;;;;;;;;17.00;16.00;;;;;;;;5074002;28;51096;-50
2021/08/27 07:30:29;;;;;;;;;16.00;15.00;;;;;;;;5074350;28;51256;-52
2021/08/27 07:32:54;;;;;;;;;15.67;14.33;;;;;;;;5074076;28;52137;-51
2021/08/27 07:35:19;;;;;;;;;13.67;12.33;;;;;;;;5074230;28;51019;-50
2021/08/27 07:37:45;;;;;;;;;12.33;12.00;;;;;;;;5056067;28;50981;-50
2021/08/27 07:40:11;;;;;;;;;15.00;13.00;;;;;;;;5074432;28;50983;-52
2021/08/27 07:42:37;;;;;;;;;14.00;13.33;;;;;;;;5073596;28;51171;-49
2021/08/27 07:45:03;;;;;;;;;13.33;11.33;;;;;;;;5073677;28;51048;-52
2021/08/27 07:47:28;;;;;;;;;12.00;12.00;;;;;;;;5072705;28;51063;-53
2021/08/27 07:49:53;;;;;;;;;14.67;13.67;;;;;;;;5073828;28;51292;-53
2021/08/27 07:52:18;;;;;;;;;13.00;12.67;;;;;;;;5073833;28;51001;-53
2021/08/27 07:54:44;;;;;;;;;9.33;9.33;;;;;;;;5073185;28;50918;-53
2021/08/27 07:57:09;;;;;;;;;12.33;12.33;;;;;;;;5055136;28;50838;-53
2021/08/27 07:59:34;;;;;;;;;13.33;12.33;;;;;;;;5073804;28;51035;-50
2021/08/27 08:01:59;;;;;;;;;12.00;11.00;;;;;;;;5073032;28;50986;-49
2021/08/27 08:04:24;;;;;;;;;9.33;8.67;;;;;;;;5073526;28;50890;-54
2021/08/27 08:06:49;;;;;;;;;9.67;9.33;;;;;;;;5073775;28;50929;-54
2021/08/27 08:09:15;;;;;;;;;9.00;8.67;;;;;;;;5073913;28;50813;-53
2021/08/27 08:11:40;;;;;;;;;9.00;8.00;;;;;;;;5073044;28;52078;-57
2021/08/27 08:14:05;;;;;;;;;12.00;10.00;;;;;;;;5073432;28;50974;-53
2021/08/27 08:16:30;;;;;;;;;9.00;9.00;;;;;;;;5055446;28;50915;-52
2021/08/27 08:18:56;;;;;;;;;6.67;6.00;;;;;;;;5073762;28;50941;-52
2021/08/27 08:21:24;;;;;;;;;7.00;6.00;;;;;;;;5072930;28;52926;-53
2021/08/27 08:23:50;;;;;;;;;6.67;6.67;;;;;;;;5055201;28;51050;-52
2021/08/27 08:26:16;;;;;;;;;6.67;6.00;;;;;;;;5073029;28;51288;-52
2021/08/27 08:28:41;;;;;;;;;8.33;8.00;;;;;;;;5073268;28;51054;-53
2021/08/27 08:31:06;;;;;;;;;8.00;7.67;;;;;;;;5073208;28;51773;-53
2021/08/27 08:33:31;;;;;;;;;8.00;7.00;;;;;;;;5072828;28;51162;-52
2021/08/27 08:35:56;;;;;;;;;6.00;6.00;;;;;;;;5072874;28;51023;-53
2021/08/27 08:38:23;;;;;;;;;4.33;4.00;;;;;;;;5073441;28;51219;-54
2021/08/27 08:40:48;;;;;;;;;5.33;4.33;;;;;;;;5072896;28;52742;-52
2021/08/27 08:43:14;;;;;;;;;6.00;5.00;;;;;;;;5072750;28;50903;-53
2021/08/27 08:45:44;;;;;;;;;5.33;4.33;;;;;;;;5054522;28;50936;-53
2021/08/27 08:48:09;;;;;;;;;7.00;6.00;;;;;;;;5073054;28;51025;-52
2021/08/27 08:50:35;;;;;;;;;5.33;5.00;;;;;;;;5072257;28;51518;-52
2021/08/27 08:53:01;;;;;;;;;5.67;4.67;;;;;;;;5072564;28;51159;-53
2021/08/27 08:55:27;;;;;;;;;3.33;3.33;;;;;;;;5072578;28;51130;-51
2021/08/27 08:57:52;;;;;;;;;5.67;5.67;;;;;;;;5072392;28;50993;-53
2021/08/27 09:00:17;;;;;;;;;6.33;5.67;;;;;;;;5072815;28;51007;-51
2021/08/27 09:02:42;;;;;;;;;6.00;6.00;;;;;;;;5072592;28;50946;-53
2021/08/27 09:05:08;;;;;;;;;6.33;5.00;;;;;;;;5054780;28;50857;-53
2021/08/27 09:07:33;;;;;;;;;6.00;6.00;;;;;;;;5054253;28;51415;-53
2021/08/27 09:09:59;;;;;;;;;3.00;3.00;;;;;;;;5072343;27;51710;-53
2021/08/27 09:12:26;;;;;;;;;4.00;4.00;;;;;;;;5071945;28;50820;-49
2021/08/27 09:15:02;;;;;;;;;6.00;6.00;;;;;;;;5046100;28;50916;-53
2021/08/27 09:17:34;;;;;;;;;4.33;4.33;;;;;;;;5070230;28;51087;-52
2021/08/27 09:20:03;;;;;;;;;6.00;4.67;;;;;;;;5072308;28;50912;-53
2021/08/27 09:22:42;;;;;;;;;4.33;4.33;;;;;;;;5072150;28;50997;-51
2021/08/27 09:25:09;;;;;;;;;6.00;5.33;;;;;;;;5072494;28;51004;-51
2021/08/27 09:27:54;;;;;;;;;6.67;6.00;;;;;;;;5071989;28;51179;-53
2021/08/27 09:30:19;;;;;;;;;3.67;3.67;;;;;;;;5072047;28;51721;-51
2021/08/27 09:32:44;;;;;;;;;7.67;6.67;;;;;;;;5072404;28;51133;-52
2021/08/27 09:35:15;;;;;;;;;9.00;6.67;;;;;;;;5072077;28;50863;-50
2021/08/27 09:37:43;;;;;;;;;5.33;5.33;;;;;;;;5072348;28;51390;-50
2021/08/27 09:40:10;;;;;;;;;4.67;4.67;;;;;;;;5071511;28;51237;-52
2021/08/27 09:42:36;;;;;;;;;8.33;7.00;;;;;;;;5071445;28;50915;-53
2021/08/27 09:45:01;;;;;;;;;6.00;6.00;;;;;;;;5070868;28;51007;-51
2021/08/27 09:47:26;;;;;;;;;3.00;3.00;;;;;;;;5071985;28;51182;-52
2021/08/27 09:49:51;;;;;;;;;5.00;4.00;;;;;;;;5053256;28;53824;-52
2021/08/27 09:52:17;;;;;;;;;6.00;5.67;;;;;;;;5071517;28;50892;-53
2021/08/27 09:54:43;;;;;;;;;4.00;4.00;;;;;;;;5071425;28;51179;-52
2021/08/27 09:57:11;;;;;;;;;3.67;3.67;;;;;;;;5071275;28;51314;-52
2021/08/27 09:59:38;;;;;;;;;2.33;2.33;;;;;;;;5071403;28;51151;-50
2021/08/27 10:02:05;;;;;;;;;4.33;4.00;;;;;;;;5071722;28;51036;-51
2021/08/27 10:04:31;;;;;;;;;2.00;2.00;;;;;;;;5071745;28;51242;-52
2021/08/27 10:06:57;;;;;;;;;1.33;1.33;;;;;;;;5071710;28;51267;-52
2021/08/27 10:09:22;;;;;;;;;0.00;0.00;;;;;;;;5071161;27;51073;-48
2021/08/27 10:11:54;;;;;;;;;1.00;1.00;;;;;;;;5071319;28;50968;-49
2021/08/27 10:14:20;;;;;;;;;10.33;9.67;;;;;;;;5071191;28;51036;-49
2021/08/27 10:16:45;;;;;;;;;1.00;1.00;;;;;;;;5071450;28;50887;-51
2021/08/27 10:19:11;;;;;;;;;0.00;0.00;;;;;;;;5052994;28;50906;-53
2021/08/27 10:21:36;;;;;;;;;1.00;1.00;;;;;;;;5070953;28;51060;-50
2021/08/27 10:24:01;;;;;;;;;1.00;1.00;;;;;;;;5070641;28;51293;-52
2021/08/27 10:26:27;;;;;;;;;5.67;4.00;;;;;;;;5052493;28;51029;-52
2021/08/27 10:28:53;;;;;;;;;0.67;0.67;;;;;;;;5070427;28;52518;-50
2021/08/27 10:31:38;;;;;;;;;1.33;1.00;;;;;;;;5070591;28;50991;-53
2021/08/27 10:34:04;;;;;;;;;1.00;1.00;;;;;;;;5071280;28;51149;-49
2021/08/27 10:36:29;;;;;;;;;1.00;1.00;;;;;;;;5052780;28;51291;-52
2021/08/27 10:38:55;;;;;;;;;2.25;1.00;;;;;;;;5071054;28;51104;-50
2021/08/27 10:41:27;;;;;;;;;2.33;2.00;;;;;;;;5070503;28;51050;-49
2021/08/27 10:44:00;;;;;;;;;17.33;17.00;;;;;;;;5070922;28;51134;-52
2021/08/27 10:46:43;;;;;;;;;1.00;1.00;;;;;;;;5071009;28;51549;-50
2021/08/27 10:49:09;;;;;;;;;0.00;0.00;;;;;;;;5070277;28;51020;-51
2021/08/27 10:51:39;;;;;;;;;0.67;0.67;;;;;;;;5051492;28;51057;-50
2021/08/27 10:54:05;;;;;;;;;1.00;0.67;;;;;;;;5070619;28;50894;-51
2021/08/27 10:56:42;;;;;;;;;2.33;2.33;;;;;;;;5070054;28;50934;-50
2021/08/27 10:59:08;;;;;;;;;2.00;1.00;;;;;;;;5073844;28;52031;-50
2021/08/27 11:01:34;;;;;;;;;4.67;4.67;;;;;;;;5073570;28;50916;-50
2021/08/27 11:04:10;;;;;;;;;3.00;2.33;;;;;;;;5073365;28;50968;-50
2021/08/27 11:06:43;;;;;;;;;0.67;0.00;;;;;;;;5074079;28;50975;-52
2021/08/27 11:09:19;;;;;;;;;0.33;0.33;;;;;;;;5054647;28;53584;-51
2021/08/27 11:11:44;;;;;;;;;1.00;1.00;;;;;;;;5073111;28;50969;-52
2021/08/27 11:14:13;;;;;;;;;1.00;1.00;;;;;;;;5073069;28;50976;-49
2021/08/27 11:16:39;;;;;;;;;1.33;1.33;;;;;;;;5059203;27;51190;-49
2021/08/27 11:19:23;;;;;;;;;2.00;1.67;;;;;;;;5071330;28;51782;-52
2021/08/27 11:21:49;;;;;;;;;2.00;1.67;;;;;;;;5073540;28;50998;-53
2021/08/27 11:24:19;;;;;;;;;3.00;3.00;;;;;;;;5070783;28;51069;-52
2021/08/27 11:26:46;;;;;;;;;3.00;3.00;;;;;;;;5067871;28;51277;-51
2021/08/27 11:29:50;;;;;;;;;5.67;4.00;;;;;;;;5066097;28;51081;-53
2021/08/27 11:32:27;;;;;;;;;4.00;4.00;;;;;;;;4978215;28;51161;-52
2021/08/27 11:35:02;;;;;;;;;3.33;3.33;;;;;;;;4991425;28;51175;-52
2021/08/27 11:37:32;;;;;;;;;3.00;2.00;;;;;;;;5038574;28;51040;-50
2021/08/27 11:39:57;;;;;;;;;1.00;1.00;;;;;;;;5073202;28;51307;-52
2021/08/27 11:42:23;;;;;;;;;3.00;1.00;;;;;;;;5072938;28;51058;-52
2021/08/27 11:45:04;;;;;;;;;1.67;1.67;;;;;;;;5073230;28;50887;-51
2021/08/27 11:47:31;;;;;;;;;2.33;2.00;;;;;;;;5073668;28;51237;-49
2021/08/27 11:50:00;;;;;;;;;1.00;0.33;;;;;;;;5054616;28;51058;-52
2021/08/27 11:52:29;;;;;;;;;1.00;0.00;;;;;;;;5073348;28;51009;-53
2021/08/27 11:55:02;;;;;;;;;1.00;1.00;;;;;;;;5072711;28;51227;-53
2021/08/27 11:57:27;;;;;;;;;2.00;2.00;;;;;;;;5072914;28;50987;-53
2021/08/27 12:00:22;;;;;;;;;1.00;1.00;;;;;;;;5072649;28;51830;-50
2021/08/27 12:02:53;;;;;;;;;1.00;1.00;;;;;;;;5044508;28;51199;-53
2021/08/27 12:05:19;;;;;;;;;2.00;1.00;;;;;;;;5073187;28;50841;-53
2021/08/27 12:07:51;;;;;;;;;2.00;2.00;;;;;;;;5073049;28;51306;-52
2021/08/27 12:10:17;;;;;;;;;0.67;0.67;;;;;;;;5071412;27;51071;-53
2021/08/27 12:12:43;;;;;;;;;0.33;0.00;;;;;;;;5072118;28;51131;-52
2021/08/27 12:15:12;;;;;;;;;3.00;2.00;;;;;;;;5072601;28;50869;-53
2021/08/27 12:17:39;;;;;;;;;4.00;4.00;;;;;;;;5073356;28;50923;-52
2021/08/27 12:20:06;;;;;;;;;1.67;1.00;;;;;;;;5072583;28;51063;-50
2021/08/27 12:22:34;;;;;;;;;1.00;1.00;;;;;;;;5072822;28;50994;-53
2021/08/27 12:24:59;;;;;;;;;1.33;1.00;;;;;;;;5072422;28;50887;-52
2021/08/27 12:27:25;;;;;;;;;1.00;1.00;;;;;;;;5071913;28;50992;-52
2021/08/27 12:30:07;;;;;;;;;1.33;0.67;;;;;;;;5071824;28;51926;-53
2021/08/27 12:32:33;;;;;;;;;3.67;3.67;;;;;;;;5054103;28;50942;-49
2021/08/27 12:34:59;;;;;;;;;1.00;1.00;;;;;;;;5071899;28;50832;-51
2021/08/27 12:37:24;;;;;;;;;1.33;1.00;;;;;;;;5071440;28;51289;-52
2021/08/27 12:39:52;;;;;;;;;4.33;3.67;;;;;;;;5072369;28;51859;-52
2021/08/27 12:42:19;;;;;;;;;2.00;2.00;;;;;;;;5072659;28;51000;-53
2021/08/27 12:44:57;;;;;;;;;1.33;1.33;;;;;;;;5072430;28;51038;-51
2021/08/27 12:47:30;;;;;;;;;3.67;3.00;;;;;;;;5072286;28;51188;-50
2021/08/27 12:49:59;;;;;;;;;1.00;1.00;;;;;;;;5071824;28;51119;-52
2021/08/27 12:52:24;;;;;;;;;3.67;3.00;;;;;;;;5072241;28;50921;-51
2021/08/27 12:54:49;;;;;;;;;3.00;1.00;;;;;;;;5071941;28;50986;-51
2021/08/27 12:57:16;;;;;;;;;1.33;1.00;;;;;;;;5072394;28;51318;-52
2021/08/27 12:59:53;;;;;;;;;1.33;1.33;;;;;;;;5071998;28;52295;-52
2021/08/27 13:02:20;;;;;;;;;4.00;3.00;;;;;;;;5071708;28;51070;-52
2021/08/27 13:04:47;;;;;;;;;4.00;3.00;;;;;;;;5072079;28;51159;-50
2021/08/27 13:07:23;;;;;;;;;3.00;2.33;;;;;;;;5071650;28;51199;-51
2021/08/27 13:09:49;;;;;;;;;1.33;1.00;;;;;;;;5071767;28;52412;-54
2021/08/27 13:12:14;;;;;;;;;3.00;2.00;;;;;;;;5071338;28;51041;-52
2021/08/27 13:14:40;;;;;;;;;4.67;3.67;;;;;;;;5072375;28;51133;-50
2021/08/27 13:17:16;;;;;;;;;2.33;2.33;;;;;;;;5064405;27;51236;-53
2021/08/27 13:19:44;;;;;;;;;2.33;2.33;;;;;;;;5071302;28;52167;-53
2021/08/27 13:22:10;;;;;;;;;2.33;2.00;;;;;;;;5070885;28;51154;-53
2021/08/27 13:24:35;;;;;;;;;3.00;3.00;;;;;;;;5071280;28;51010;-49
2021/08/27 13:27:00;;;;;;;;;1.33;1.33;;;;;;;;5071237;28;51145;-50
2021/08/27 13:29:26;;;;;;;;;3.00;3.00;;;;;;;;5070971;28;52179;-49
2021/08/27 13:31:51;;;;;;;;;2.00;2.00;;;;;;;;5071499;28;50981;-51
2021/08/27 13:34:16;;;;;;;;;1.67;1.67;;;;;;;;5071444;28;51036;-51
2021/08/27 13:36:41;;;;;;;;;3.00;2.00;;;;;;;;5071177;28;51157;-53
2021/08/27 13:39:12;;;;;;;;;2.33;2.33;;;;;;;;5062195;28;51228;-51
2021/08/27 13:41:37;;;;;;;;;3.00;3.00;;;;;;;;5066639;28;51789;-50
2021/08/27 13:44:02;;;;;;;;;4.33;3.00;;;;;;;;5071103;28;51199;-53
2021/08/27 13:46:27;;;;;;;;;2.00;2.00;;;;;;;;5071089;28;51061;-52
2021/08/27 13:48:53;;;;;;;;;3.00;2.00;;;;;;;;5070802;28;51856;-51
2021/08/27 13:51:18;;;;;;;;;2.00;2.00;;;;;;;;5071035;28;51005;-51
2021/08/27 13:53:43;;;;;;;;;2.00;2.00;;;;;;;;5070875;28;51026;-52
2021/08/27 13:56:08;;;;;;;;;2.67;2.33;;;;;;;;5069750;28;51366;-50
2021/08/27 13:58:34;;;;;;;;;4.67;3.00;;;;;;;;5071012;28;51158;-56
2021/08/27 14:00:59;;;;;;;;;3.00;2.33;;;;;;;;5070623;28;51117;-49
2021/08/27 14:03:24;;;;;;;;;3.33;3.00;;;;;;;;5071125;28;51176;-50
2021/08/27 14:05:49;;;;;;;;;3.00;3.00;;;;;;;;5071388;28;51409;-51
2021/08/27 14:08:14;;;;;;;;;4.00;4.00;;;;;;;;5070966;28;52053;-50
2021/08/27 14:10:40;;;;;;;;;4.00;4.00;;;;;;;;5071176;28;51025;-52
2021/08/27 14:13:06;;;;;;;;;3.00;3.00;;;;;;;;5070750;28;51048;-49
2021/08/27 14:15:31;;;;;;;;;3.67;3.67;;;;;;;;5070836;28;51055;-52
2021/08/27 14:17:56;;;;;;;;;4.33;4.33;;;;;;;;5070972;28;51183;-49
2021/08/27 14:20:22;;;;;;;;;5.00;5.00;;;;;;;;5070267;28;51052;-51
2021/08/27 14:22:47;;;;;;;;;5.00;4.00;;;;;;;;5071129;28;51134;-49
2021/08/27 14:25:13;;;;;;;;;5.00;5.00;;;;;;;;5071167;28;50800;-53
2021/08/27 14:27:42;;;;;;;;;5.00;5.00;;;;;;;;5070396;28;52260;-52
2021/08/27 14:30:09;;;;;;;;;4.00;3.00;;;;;;;;5071018;28;50983;-51
2021/08/27 14:32:36;;;;;;;;;4.00;4.00;;;;;;;;5072438;28;50955;-53
2021/08/27 14:35:01;;;;;;;;;3.00;3.00;;;;;;;;5074654;28;51275;-51